Time;durP1;ratioP1;P1;durP2;ratioP2;P2;SDS_P1;SDS_P2;PMS_P1;PMS_P2;Temp;Humidity;BMP_temperature;BMP_pressure;BME280_temperature;BME280_humidity;BME280_pressure;Samples;Min_cycle;Max_cycle;Signal;HPM_P1;HPM_P2
2023/05/27 00:01:30;;;;;;;21.65;1.38;;;;;;;24.09;41.58;100524.75;7311342;19;128994;-66
2023/05/27 00:03:55;;;;;;;54.60;3.17;;;;;;;24.12;41.82;100521.00;7307157;19;129142;-66
2023/05/27 00:06:21;;;;;;;31.53;1.87;;;;;;;24.11;41.74;100520.16;7313669;19;129499;-66
2023/05/27 00:08:46;;;;;;;20.70;1.45;;;;;;;24.10;41.47;100522.94;7311692;19;129109;-63
2023/05/27 00:11:11;;;;;;;58.03;3.33;;;;;;;24.13;41.30;100523.50;7309985;19;129556;-65
2023/05/27 00:13:37;;;;;;;36.70;2.05;;;;;;;24.14;41.97;100514.69;7311976;19;128880;-63
2023/05/27 00:16:03;;;;;;;24.10;1.53;;;;;;;23.98;41.60;100509.06;7310270;19;131263;-64
2023/05/27 00:18:29;;;;;;;6.00;0.63;;;;;;;24.11;41.17;100527.25;7311043;19;129302;-66
2023/05/27 00:20:54;;;;;;;52.78;2.90;;;;;;;24.10;41.10;100523.78;7310393;19;129427;-66
2023/05/27 00:23:20;;;;;;;36.55;2.00;;;;;;;24.10;41.20;100521.16;7310738;19;129481;-63
2023/05/27 00:25:47;;;;;;;25.73;1.90;;;;;;;24.07;41.19;100518.78;7308339;19;130699;-63
2023/05/27 00:28:12;;;;;;;29.20;1.73;;;;;;;24.09;41.42;100516.88;7310765;19;129142;-64
2023/05/27 00:30:37;;;;;;;43.63;2.43;;;;;;;23.97;41.69;100499.50;7310513;19;128974;-65
2023/05/27 00:33:03;;;;;;;46.55;2.83;;;;;;;24.13;41.63;100513.00;7310134;19;129840;-65
2023/05/27 00:35:28;;;;;;;15.93;0.97;;;;;;;24.10;41.36;100513.28;7310666;19;130146;-66
2023/05/27 00:40:26;;;;;;;28.85;1.83;;;;;;;24.11;41.37;100514.91;7306771;19;153651;-66
2023/05/27 00:42:51;;;;;;;33.53;1.95;;;;;;;24.08;41.17;100515.19;7313173;19;128882;-64
2023/05/27 00:45:17;;;;;;;30.87;2.03;;;;;;;24.04;41.40;100500.69;7308315;19;129055;-64
2023/05/27 00:47:42;;;;;;;35.83;2.28;;;;;;;24.13;41.39;100523.50;7317402;19;129912;-64
2023/05/27 00:50:08;;;;;;;43.50;2.37;;;;;;;24.05;41.78;100499.69;7312124;19;129698;-68
2023/05/27 00:52:34;;;;;;;36.30;2.17;;;;;;;24.14;41.73;100522.56;7313512;19;129944;-66
2023/05/27 00:54:59;;;;;;;30.43;1.80;;;;;;;24.09;41.38;100524.75;7309945;19;128923;-67
2023/05/27 00:57:25;;;;;;;22.07;1.33;;;;;;;24.13;41.02;100518.25;7311512;19;129722;-67
2023/05/27 00:59:51;;;;;;;47.50;2.53;;;;;;;24.13;41.35;100526.13;7311083;19;129462;-67
2023/05/27 01:02:17;;;;;;;26.83;1.55;;;;;;;24.12;41.22;100524.47;7312544;19;129087;-66
2023/05/27 01:04:42;;;;;;;24.00;1.70;;;;;;;24.18;41.38;100523.94;7309551;19;129652;-64
2023/05/27 01:07:22;;;;;;;29.87;1.67;;;;;;;24.13;41.26;100522.69;7310091;19;129650;-65
2023/05/27 01:09:59;;;;;;;54.00;3.05;;;;;;;24.17;41.21;100519.66;7309133;19;131244;-67
2023/05/27 01:12:46;;;;;;;46.97;2.47;;;;;;;24.15;41.33;100521.59;7311603;19;129179;-64
2023/05/27 01:15:12;;;;;;;46.40;2.50;;;;;;;24.12;41.32;100516.59;7306557;19;130475;-64
2023/05/27 01:17:42;;;;;;;33.70;1.80;;;;;;;24.14;41.71;100516.47;7313385;19;129063;-64
2023/05/27 01:20:10;;;;;;;27.75;1.63;;;;;;;24.13;41.54;100515.63;7317989;19;129180;-67
2023/05/27 01:22:36;;;;;;;37.10;2.38;;;;;;;24.12;41.04;100516.59;7319050;19;129118;-67
2023/05/27 01:25:02;;;;;;;41.43;2.30;;;;;;;24.13;41.20;100518.25;7317660;19;129204;-67
2023/05/27 01:27:28;;;;;;;19.33;1.08;;;;;;;24.14;41.44;100509.41;7318417;19;129990;-67
2023/05/27 01:29:56;;;;;;;33.90;1.87;;;;;;;24.14;41.62;100509.41;7317870;19;129288;-69
2023/05/27 01:32:39;;;;;;;47.40;2.55;;;;;;;24.08;41.24;100491.53;7315944;19;129068;-66
2023/05/27 01:35:17;;;;;;;22.13;1.52;;;;;;;24.11;41.07;100509.66;7314935;19;131859;-64
2023/05/27 01:37:45;;;;;;;31.77;2.05;;;;;;;24.11;41.00;100503.59;7316976;19;129634;-64
2023/05/27 01:40:13;;;;;;;38.35;2.22;;;;;;;24.09;41.07;100506.38;7318188;19;129251;-66
2023/05/27 01:42:40;;;;;;;13.88;1.08;;;;;;;24.06;41.87;100500.53;7323721;19;129027;-66
2023/05/27 01:45:07;;;;;;;26.42;1.70;;;;;;;24.12;41.35;100502.63;7316022;19;129584;-66
2023/05/27 01:47:34;;;;;;;32.30;1.70;;;;;;;24.09;41.76;100498.47;7316669;19;129437;-64
2023/05/27 01:49:59;;;;;;;44.67;2.53;;;;;;;24.12;41.66;100495.59;7315498;19;129285;-64
2023/05/27 01:52:25;;;;;;;37.92;2.10;;;;;;;24.15;41.14;100497.09;7318023;19;129148;-66
2023/05/27 01:54:51;;;;;;;37.95;2.40;;;;;;;24.15;41.73;100499.72;7314477;19;129202;-68
2023/05/27 01:57:17;;;;;;;49.20;2.80;;;;;;;24.04;41.52;100477.03;7316536;19;129670;-66
2023/05/27 01:59:42;;;;;;;45.70;2.40;;;;;;;24.19;41.33;100491.47;7316152;19;130123;-64
2023/05/27 02:02:09;;;;;;;24.73;1.55;;;;;;;24.09;41.07;100495.00;7316752;19;129949;-63
2023/05/27 02:04:34;;;;;;;38.72;2.75;;;;;;;24.14;41.68;100498.91;7313282;19;129466;-64
2023/05/27 02:07:00;;;;;;;42.38;2.35;;;;;;;24.13;41.49;100494.59;7315972;19;129296;-65
2023/05/27 02:09:25;;;;;;;24.45;1.40;;;;;;;24.03;41.53;100472.72;7317116;19;129179;-63
2023/05/27 02:11:51;;;;;;;35.83;2.20;;;;;;;24.10;41.39;100487.00;7312633;19;129052;-65
2023/05/27 02:14:16;;;;;;;34.72;2.20;;;;;;;24.13;41.03;100485.91;7313735;19;129493;-65
2023/05/27 02:16:43;;;;;;;56.10;3.03;;;;;;;24.12;41.35;100485.06;7313857;19;129930;-64
2023/05/27 02:19:08;;;;;;;30.83;1.70;;;;;;;24.16;41.22;100486.44;7316034;19;129091;-65
2023/05/27 02:21:35;;;;;;;8.55;0.73;;;;;;;24.14;41.49;100492.81;7313402;19;129007;-64
2023/05/27 02:24:01;;;;;;;88.10;5.72;;;;;;;24.14;41.89;100482.31;7314178;19;129727;-64
2023/05/27 02:26:26;;;;;;;45.65;2.33;;;;;;;24.13;41.61;100480.66;7317278;19;129705;-64
2023/05/27 02:28:52;;;;;;;32.65;1.92;;;;;;;24.05;41.20;100462.91;7313529;19;129056;-64
2023/05/27 02:31:17;;;;;;;34.70;2.03;;;;;;;24.11;41.06;100488.66;7313876;19;130387;-64
2023/05/27 02:33:42;;;;;;;55.20;3.27;;;;;;;24.13;40.99;100483.28;7313982;19;129280;-64
2023/05/27 02:36:08;;;;;;;46.67;2.43;;;;;;;24.10;41.34;100491.41;7312610;19;129133;-64
2023/05/27 02:38:33;;;;;;;1.70;0.20;;;;;;;24.13;41.50;100485.91;7319654;19;128762;-64
2023/05/27 02:40:59;;;;;;;23.98;1.45;;;;;;;24.10;41.10;100492.25;7313951;19;129000;-65
2023/05/27 02:43:24;;;;;;;34.78;2.05;;;;;;;24.16;41.35;100491.69;7313478;19;129925;-62
2023/05/27 02:45:49;;;;;;;23.60;1.57;;;;;;;24.12;41.63;100495.59;7313381;19;129133;-63
2023/05/27 02:48:15;;;;;;;43.87;2.40;;;;;;;24.14;41.30;100492.81;7315230;19;128867;-63
2023/05/27 02:50:40;;;;;;;34.63;2.10;;;;;;;24.12;41.43;100487.69;7312987;19;129031;-63
2023/05/27 02:53:05;;;;;;;13.33;0.93;;;;;;;24.17;41.50;100488.13;7313963;19;129156;-65
2023/05/27 02:55:31;;;;;;;35.10;2.00;;;;;;;24.17;41.56;100490.75;7314960;19;129732;-63
2023/05/27 02:57:56;;;;;;;29.50;1.70;;;;;;;24.13;41.03;100494.59;7312975;19;129539;-65
2023/05/27 03:00:21;;;;;;;29.43;1.80;;;;;;;24.13;41.59;100494.59;7313085;19;129837;-63
2023/05/27 03:02:47;;;;;;;45.13;2.50;;;;;;;24.13;41.31;100494.59;7312002;19;131782;-64
2023/05/27 03:05:14;;;;;;;39.00;2.27;;;;;;;24.15;40.92;100490.06;7313625;19;129478;-64
2023/05/27 03:07:41;;;;;;;28.95;1.77;;;;;;;24.13;41.03;100488.53;7314202;19;128904;-66
2023/05/27 03:10:07;;;;;;;27.02;1.50;;;;;;;24.14;41.67;100493.66;7313297;19;129514;-63
2023/05/27 03:12:33;;;;;;;57.00;3.10;;;;;;;24.13;41.43;100486.72;7312735;19;129718;-65
2023/05/27 03:14:58;;;;;;;33.13;1.88;;;;;;;24.16;41.45;100489.06;7313562;19;128876;-65
2023/05/27 03:17:24;;;;;;;92.45;5.45;;;;;;;24.16;41.42;100491.69;7310610;19;129337;-64
2023/05/27 03:19:49;;;;;;;45.30;2.80;;;;;;;24.14;40.90;100488.41;7313618;19;129479;-64
2023/05/27 03:24:43;;;;;;;27.52;1.98;;;;;;;24.15;41.56;100495.31;7313734;19;129653;-39
2023/05/27 03:27:08;;;;;;;18.87;1.50;;;;;;;24.05;41.07;100470.81;7313531;19;129212;-39
2023/05/27 03:29:33;;;;;;;19.80;1.40;;;;;;;24.15;41.03;100492.69;7313997;19;129378;-41
2023/05/27 03:31:59;;;;;;;30.80;1.93;;;;;;;24.12;41.83;100490.31;7313485;19;129575;-41
2023/05/27 03:34:25;;;;;;;24.83;1.67;;;;;;;24.12;41.63;100485.06;7313985;19;130886;-41
2023/05/27 03:36:50;;;;;;;26.53;1.90;;;;;;;24.13;41.70;100499.84;7312408;19;129888;-41
2023/05/27 03:39:16;;;;;;;27.02;1.95;;;;;;;24.18;40.99;100495.03;7312604;19;129047;-40
2023/05/27 03:41:43;;;;;;;49.13;3.37;;;;;;;24.15;41.66;100499.72;7312519;19;130734;-40
2023/05/27 03:44:08;;;;;;;8.75;0.80;;;;;;;24.11;40.98;100499.16;7311880;19;129896;-41
2023/05/27 03:46:35;;;;;;;20.97;1.50;;;;;;;24.03;41.65;100485.84;7313291;19;128848;-40
2023/05/27 03:49:00;;;;;;;35.53;2.17;;;;;;;24.13;41.27;100499.06;7313423;19;129229;-41
2023/05/27 03:51:26;;;;;;;20.38;1.55;;;;;;;24.12;41.37;100503.47;7310519;19;129265;-42
2023/05/27 03:53:51;;;;;;;59.40;4.23;;;;;;;24.12;41.01;100506.09;7310970;19;129290;-40
2023/05/27 03:56:17;;;;;;;32.00;2.25;;;;;;;24.15;41.56;100500.56;7310250;19;128956;-38
2023/05/27 03:58:42;;;;;;;36.38;2.45;;;;;;;24.15;40.64;100499.72;7312443;19;128782;-41
2023/05/27 04:01:08;;;;;;;38.77;2.40;;;;;;;24.17;41.06;100503.06;7309684;19;131010;-39
2023/05/27 04:03:34;;;;;;;15.43;1.33;;;;;;;24.18;41.52;100502.09;7312315;19;129675;-41
2023/05/27 04:05:59;;;;;;;18.50;1.47;;;;;;;24.15;40.95;100500.56;7311546;19;129510;-37
2023/05/27 04:08:26;;;;;;;32.08;2.05;;;;;;;24.13;41.69;100499.84;7312693;19;129324;-40
2023/05/27 04:10:55;;;;;;;40.22;2.85;;;;;;;24.16;41.20;100498.78;7309428;19;130166;-40
2023/05/27 04:13:20;;;;;;;25.27;1.85;;;;;;;24.16;41.58;100507.47;7311375;19;129190;-42
2023/05/27 04:15:46;;;;;;;27.47;1.83;;;;;;;24.14;41.29;100505.94;7310615;19;129186;-38
2023/05/27 04:18:12;;;;;;;40.40;2.50;;;;;;;24.14;41.60;100506.78;7311764;19;129295;-40
2023/05/27 04:20:40;;;;;;;26.47;1.80;;;;;;;24.05;41.05;100489.19;7310682;19;129627;-39
2023/05/27 04:23:09;;;;;;;31.92;2.15;;;;;;;24.05;40.89;100488.34;7311210;19;129516;-38
2023/05/27 04:25:35;;;;;;;20.45;1.48;;;;;;;24.11;40.93;100504.41;7311860;19;129218;-41
2023/05/27 04:28:04;;;;;;;26.57;1.63;;;;;;;24.15;41.20;100511.06;7312839;19;129966;-39
2023/05/27 04:30:33;;;;;;;29.60;1.83;;;;;;;24.07;41.58;100492.53;7310134;19;129181;-40
2023/05/27 04:32:59;;;;;;;23.85;1.73;;;;;;;24.14;41.63;100516.47;7310953;19;130554;-40
2023/05/27 04:35:25;;;;;;;24.83;1.70;;;;;;;24.15;41.45;100516.31;7309810;19;128772;-40
2023/05/27 04:37:50;;;;;;;32.47;2.30;;;;;;;24.15;41.38;100516.31;7310633;19;129333;-40
2023/05/27 04:40:16;;;;;;;36.33;2.37;;;;;;;24.13;41.12;100518.25;7309553;19;129254;-37
2023/05/27 04:42:43;;;;;;;22.63;1.70;;;;;;;24.16;41.65;100512.72;7310136;19;130301;-41
2023/05/27 04:45:11;;;;;;;22.30;1.48;;;;;;;24.14;41.25;100514.69;7310093;19;129358;-38
2023/05/27 04:47:37;;;;;;;26.52;1.80;;;;;;;24.13;41.29;100518.25;7311404;19;129162;-40
2023/05/27 04:50:09;;;;;;;26.50;1.90;;;;;;;24.16;41.48;100517.97;7310597;19;129870;-38
2023/05/27 04:52:38;;;;;;;37.67;2.42;;;;;;;24.08;41.56;100502.06;7314089;19;129358;-41
2023/05/27 04:55:04;;;;;;;19.40;1.33;;;;;;;24.15;41.37;100526.84;7316688;19;129066;-41
2023/05/27 04:57:30;;;;;;;11.00;0.88;;;;;;;24.21;41.54;100523.66;7314938;19;128941;-38
2023/05/27 05:02:36;;;;;;;23.90;1.60;;;;;;;24.18;41.44;100523.94;7317831;19;128972;-39
2023/05/27 05:05:11;;;;;;;39.35;2.47;;;;;;;24.16;40.50;100523.22;7316884;19;130008;-40
2023/05/27 05:07:39;;;;;;;21.45;1.45;;;;;;;24.16;41.75;100525.88;7318087;19;130015;-41
2023/05/27 05:10:06;;;;;;;35.35;2.15;;;;;;;24.13;41.63;100523.50;7315976;19;129608;-41
2023/05/27 05:12:31;;;;;;;39.60;2.58;;;;;;;24.12;41.40;100527.13;7318042;19;129159;-40
2023/05/27 05:14:57;;;;;;;26.63;1.83;;;;;;;24.14;41.62;100525.19;7316566;19;129338;-39
2023/05/27 05:17:24;;;;;;;21.05;1.50;;;;;;;24.16;41.21;100528.50;7316551;19;129227;-41
2023/05/27 05:19:51;;;;;;;22.20;1.75;;;;;;;24.17;41.21;100529.31;7315549;19;129879;-40
2023/05/27 05:22:18;;;;;;;41.25;2.60;;;;;;;24.20;41.22;100529.91;7317959;19;129727;-41
2023/05/27 05:24:46;;;;;;;32.13;2.33;;;;;;;24.09;40.93;100516.88;7315366;19;129083;-41
2023/05/27 05:27:12;;;;;;;22.98;1.58;;;;;;;24.20;41.54;100531.69;7316891;19;129022;-39
2023/05/27 05:29:37;;;;;;;21.40;1.43;;;;;;;24.16;41.27;100536.38;7316148;19;129407;-37
2023/05/27 05:32:04;;;;;;;33.27;2.30;;;;;;;24.16;41.41;100539.00;7316552;19;129674;-37
2023/05/27 05:34:29;;;;;;;37.40;2.97;;;;;;;24.17;41.66;100534.59;7315973;19;129656;-40
2023/05/27 05:36:55;;;;;;;24.67;1.83;;;;;;;24.14;41.36;100538.31;7315101;19;129776;-41
2023/05/27 05:39:20;;;;;;;28.13;1.90;;;;;;;24.15;41.25;100537.34;7316412;19;130475;-40
2023/05/27 05:41:46;;;;;;;47.60;2.95;;;;;;;24.08;41.03;100528.31;7317320;19;129707;-41
2023/05/27 05:44:12;;;;;;;22.67;1.60;;;;;;;24.14;40.98;100545.38;7316424;19;129950;-41
2023/05/27 05:46:37;;;;;;;21.35;1.50;;;;;;;24.16;40.94;100535.56;7316661;19;129750;-41
2023/05/27 05:49:02;;;;;;;32.30;2.17;;;;;;;24.14;41.25;100546.22;7316750;19;129727;-40
2023/05/27 05:51:28;;;;;;;34.42;2.15;;;;;;;24.15;41.26;100547.84;7314214;19;129551;-40
2023/05/27 05:53:53;;;;;;;61.60;4.20;;;;;;;24.14;41.59;100543.59;7316749;19;129260;-40
2023/05/27 05:56:18;;;;;;;9.13;0.82;;;;;;;24.19;40.99;100549.28;7314903;19;129053;-40
2023/05/27 05:58:44;;;;;;;39.70;2.73;;;;;;;24.17;40.87;100555.59;7316671;19;129058;-40
2023/05/27 06:01:09;;;;;;;27.23;1.85;;;;;;;24.15;41.19;100555.75;7314461;19;129318;-39
2023/05/27 06:03:36;;;;;;;18.33;1.27;;;;;;;24.15;40.92;100558.38;7315901;19;128866;-37
2023/05/27 06:06:02;;;;;;;20.95;1.50;;;;;;;24.20;41.19;100561.44;7314119;19;129284;-37
2023/05/27 06:08:28;;;;;;;30.92;1.92;;;;;;;24.15;41.34;100558.38;7315868;19;131263;-42
2023/05/27 06:10:53;;;;;;;58.03;3.53;;;;;;;24.20;41.02;100557.97;7313734;19;129035;-42
2023/05/27 06:13:19;;;;;;;30.47;2.23;;;;;;;24.17;41.25;100561.69;7315519;19;129845;-41
2023/05/27 06:15:44;;;;;;;28.10;2.10;;;;;;;24.20;40.94;100561.44;7313278;19;128869;-40
2023/05/27 06:18:10;;;;;;;36.20;2.33;;;;;;;24.18;41.43;100558.09;7315448;19;129813;-40
2023/05/27 06:20:35;;;;;;;9.82;0.93;;;;;;;24.18;40.77;100560.72;7314518;19;129147;-39
2023/05/27 06:23:01;;;;;;;19.77;1.40;;;;;;;24.18;41.27;100555.47;7315469;19;130193;-42
2023/05/27 06:25:26;;;;;;;20.00;1.43;;;;;;;24.19;41.43;100561.56;7313320;19;128834;-41
2023/05/27 06:27:52;;;;;;;48.55;3.10;;;;;;;24.17;41.67;100561.69;7314718;19;129172;-41
2023/05/27 06:30:17;;;;;;;27.07;1.97;;;;;;;24.15;40.98;100563.63;7313929;19;129329;-38
2023/05/27 06:32:43;;;;;;;12.57;1.23;;;;;;;24.17;41.57;100566.13;7314718;19;128865;-41
2023/05/27 06:35:08;;;;;;;31.27;1.98;;;;;;;24.12;41.23;100561.25;7313391;19;129440;-39
2023/05/27 06:37:34;;;;;;;33.30;2.10;;;;;;;24.18;41.31;100560.72;7312451;19;129224;-38
2023/05/27 06:39:59;;;;;;;13.03;1.00;;;;;;;24.19;41.10;100564.19;7313595;19;130146;-41
2023/05/27 06:42:24;;;;;;;25.00;1.63;;;;;;;24.12;41.12;100558.63;7315097;19;128962;-39
2023/05/27 06:44:50;;;;;;;40.00;2.77;;;;;;;24.13;41.37;100549.78;7312924;19;128821;-39
2023/05/27 06:47:15;;;;;;;24.63;1.73;;;;;;;24.15;41.70;100557.53;7314655;19;129194;-41
2023/05/27 06:49:40;;;;;;;21.33;1.35;;;;;;;24.16;41.33;100560.03;7313713;19;129339;-38
2023/05/27 06:52:06;;;;;;;22.23;1.50;;;;;;;24.03;41.25;100538.41;7314779;19;129347;-39
2023/05/27 06:54:32;;;;;;;35.33;2.20;;;;;;;24.14;40.84;100556.72;7312996;19;129771;-40
2023/05/27 06:56:57;;;;;;;31.15;2.20;;;;;;;24.14;41.61;100548.84;7313245;19;129150;-41
2023/05/27 06:59:22;;;;;;;30.53;2.20;;;;;;;24.12;41.19;100547.28;7313389;19;129487;-40
2023/05/27 07:01:48;;;;;;;30.58;2.22;;;;;;;24.07;40.91;100529.31;7313669;19;128940;-42
2023/05/27 07:04:13;;;;;;;46.88;3.13;;;;;;;24.18;41.29;100558.09;7313298;19;129352;-41
2023/05/27 07:06:39;;;;;;;24.00;1.58;;;;;;;24.14;41.37;100551.47;7314675;19;130080;-39
2023/05/27 07:09:04;;;;;;;22.70;1.58;;;;;;;24.16;41.40;100554.75;7314048;19;129222;-41
2023/05/27 07:11:31;;;;;;;33.73;2.13;;;;;;;24.18;40.79;100552.03;7311190;19;129177;-41
2023/05/27 07:13:56;;;;;;;75.22;5.05;;;;;;;24.13;40.87;100556.84;7313667;19;129598;-41
2023/05/27 07:16:22;;;;;;;25.53;1.80;;;;;;;24.12;41.35;100548.13;7311334;19;129059;-41
2023/05/27 07:18:47;;;;;;;31.47;2.17;;;;;;;24.14;40.95;100550.63;7314091;19;129547;-41
2023/05/27 07:21:12;;;;;;;27.80;1.87;;;;;;;24.13;41.79;100551.59;7311981;19;129590;-41
2023/05/27 07:23:38;;;;;;;32.83;2.13;;;;;;;24.14;41.57;100538.31;7313250;19;129026;-40
2023/05/27 07:26:03;;;;;;;14.37;1.20;;;;;;;24.15;41.26;100547.00;7313596;19;129607;-40
2023/05/27 07:28:29;;;;;;;21.83;1.57;;;;;;;24.18;41.55;100544.97;7313390;19;129375;-41
2023/05/27 07:30:54;;;;;;;39.13;2.67;;;;;;;24.12;41.29;100535.00;7311602;19;129111;-42
2023/05/27 07:33:19;;;;;;;31.53;2.10;;;;;;;24.14;41.30;100540.94;7313799;19;128924;-39
2023/05/27 07:35:45;;;;;;;32.60;2.30;;;;;;;24.10;41.78;100541.31;7312668;19;129006;-39
2023/05/27 07:38:10;;;;;;;24.13;1.73;;;;;;;24.13;41.85;100541.91;7311299;19;132648;-42
2023/05/27 07:40:36;;;;;;;29.73;1.88;;;;;;;24.13;41.71;100541.09;7311490;19;129493;-40
2023/05/27 07:43:01;;;;;;;24.73;1.67;;;;;;;24.16;41.68;100541.63;7313462;19;128908;-38
2023/05/27 07:45:28;;;;;;;28.73;2.03;;;;;;;24.12;41.27;100542.03;7311720;19;129194;-39
2023/05/27 07:47:54;;;;;;;28.52;2.08;;;;;;;24.10;40.98;100531.66;7313160;19;129863;-38
2023/05/27 07:50:19;;;;;;;32.57;2.27;;;;;;;24.05;41.36;100523.34;7312248;19;129117;-41
2023/05/27 07:52:45;;;;;;;31.70;2.23;;;;;;;24.14;41.73;100535.69;7313809;19;129483;-39
2023/05/27 07:55:10;;;;;;;25.53;1.80;;;;;;;24.12;41.20;100536.78;7311887;19;130151;-40
2023/05/27 07:57:36;;;;;;;22.40;1.43;;;;;;;24.13;41.65;100533.22;7310662;19;129296;-40
2023/05/27 08:00:03;;;;;;;44.40;3.07;;;;;;;24.16;41.00;100533.75;7311399;19;129117;-39
2023/05/27 08:02:28;;;;;;;25.17;1.67;;;;;;;24.16;41.05;100528.50;7313395;19;128979;-39
2023/05/27 08:04:54;;;;;;;34.17;2.47;;;;;;;24.07;41.12;100507.44;7311066;19;129281;-40
2023/05/27 08:07:19;;;;;;;43.63;2.63;;;;;;;24.14;41.23;100524.34;7312911;19;129189;-39
2023/05/27 08:09:45;;;;;;;39.22;2.47;;;;;;;24.11;40.97;100530.69;7311517;19;129010;-39
2023/05/27 08:12:10;;;;;;;21.87;1.57;;;;;;;24.15;41.58;100532.09;7313479;19;129068;-39
2023/05/27 08:14:35;;;;;;;28.90;1.97;;;;;;;24.05;41.57;100509.38;7311156;19;130188;-40
2023/05/27 08:17:01;;;;;;;14.18;1.08;;;;;;;24.20;40.88;100524.63;7311225;19;129196;-40
2023/05/27 08:19:27;;;;;;;37.67;2.23;;;;;;;24.22;40.84;100508.75;7312458;19;128961;-41
2023/05/27 08:21:52;;;;;;;32.80;2.20;;;;;;;24.15;40.97;100499.72;7312825;19;129162;-40
2023/05/27 08:24:21;;;;;;;43.42;3.20;;;;;;;24.14;41.33;100504.16;7311144;19;129581;-40
2023/05/27 08:26:47;;;;;;;27.23;1.90;;;;;;;24.17;40.94;100503.91;7312045;19;129957;-42
2023/05/27 08:29:12;;;;;;;40.63;2.80;;;;;;;24.10;41.52;100487.00;7318771;19;129006;-39
2023/05/27 08:31:38;;;;;;;15.63;0.93;;;;;;;24.17;41.62;100498.63;7316950;19;129699;-39
2023/05/27 08:34:03;;;;;;;37.43;2.73;;;;;;;24.14;41.65;100498.06;7318624;19;130129;-38
2023/05/27 08:36:29;;;;;;;34.00;2.23;;;;;;;24.16;41.53;100507.47;7317881;19;129644;-37
2023/05/27 08:38:56;;;;;;;40.72;2.70;;;;;;;24.06;41.32;100484.78;7319617;19;129194;-38
2023/05/27 08:41:21;;;;;;;22.23;1.50;;;;;;;24.14;41.25;100498.91;7316881;19;129136;-36
2023/05/27 08:43:47;;;;;;;28.40;2.13;;;;;;;24.17;41.61;100495.16;7317021;19;129066;-39
2023/05/27 08:46:13;;;;;;;34.57;2.27;;;;;;;24.10;41.02;100481.75;7317088;19;129722;-39
2023/05/27 08:48:40;;;;;;;34.60;2.25;;;;;;;24.14;41.14;100488.41;7317211;19;128990;-39
2023/05/27 08:51:06;;;;;;;22.98;1.52;;;;;;;24.17;41.29;100490.75;7316037;19;129670;-39
2023/05/27 08:53:32;;;;;;;17.17;1.23;;;;;;;24.12;41.62;100482.44;7317087;19;129013;-39
2023/05/27 08:56:01;;;;;;;32.78;2.15;;;;;;;24.16;40.95;100480.38;7316015;19;129397;-39
2023/05/27 08:58:27;;;;;;;37.45;2.47;;;;;;;24.14;40.96;100479.69;7317994;19;128757;-38
2023/05/27 09:00:52;;;;;;;25.67;1.73;;;;;;;24.13;40.95;100476.22;7317011;19;129502;-40
2023/05/27 09:03:17;;;;;;;21.63;1.50;;;;;;;24.15;41.33;100476.06;7317711;19;130195;-38
2023/05/27 09:05:43;;;;;;;45.80;2.83;;;;;;;24.15;41.60;100474.28;7316267;19;129751;-39
2023/05/27 09:08:09;;;;;;;43.13;2.67;;;;;;;24.16;41.53;100467.25;7318213;19;128876;-39
2023/05/27 09:10:39;;;;;;;21.53;1.50;;;;;;;24.16;41.66;100457.53;7317095;19;128947;-42
2023/05/27 09:13:04;;;;;;;42.22;2.80;;;;;;;24.17;41.03;100461.84;7317881;19;129682;-42
2023/05/27 09:15:33;;;;;;;32.13;2.13;;;;;;;24.17;41.17;100464.47;7316767;19;129630;-40
2023/05/27 09:17:59;;;;;;;33.17;2.20;;;;;;;24.13;41.53;100460.44;7315569;19;128843;-39
2023/05/27 09:20:26;;;;;;;28.17;1.97;;;;;;;24.14;41.74;100459.50;7316599;19;129018;-40
2023/05/27 09:23:02;;;;;;;34.45;2.35;;;;;;;24.13;41.34;100457.81;7315737;19;129880;-40
2023/05/27 09:25:28;;;;;;;28.88;1.95;;;;;;;24.07;41.82;100445.22;7315969;19;129364;-39
2023/05/27 09:27:55;;;;;;;42.60;2.90;;;;;;;24.16;41.29;100460.16;7317511;19;130402;-39
2023/05/27 09:30:21;;;;;;;23.88;1.70;;;;;;;24.17;41.31;100456.59;7317645;19;129018;-38
2023/05/27 09:32:47;;;;;;;15.23;1.17;;;;;;;24.12;41.71;100460.59;7316951;19;129404;-35
2023/05/27 09:35:14;;;;;;;31.10;2.03;;;;;;;24.14;41.26;100462.13;7315784;19;129769;-39
2023/05/27 09:37:41;;;;;;;21.88;1.58;;;;;;;24.14;41.30;100458.66;7313754;19;129058;-38
2023/05/27 09:40:14;;;;;;;21.23;1.53;;;;;;;24.13;40.86;100449.94;7316105;19;129947;-39
2023/05/27 09:42:41;;;;;;;12.15;0.95;;;;;;;24.13;40.97;100444.69;7316169;19;129349;-38
2023/05/27 09:45:09;;;;;;;23.45;1.50;;;;;;;24.14;41.63;100446.38;7315511;19;130013;-39
2023/05/27 09:47:39;;;;;;;37.15;2.30;;;;;;;24.06;41.21;100430.44;7317544;19;129062;-38
2023/05/27 09:50:05;;;;;;;33.03;2.17;;;;;;;24.14;41.12;100445.53;7316156;19;128885;-39
2023/05/27 09:52:31;;;;;;;24.02;1.63;;;;;;;24.14;41.04;100451.63;7316774;19;129644;-38
2023/05/27 09:54:57;;;;;;;21.17;1.60;;;;;;;24.14;41.60;100443.72;7314345;19;130286;-41
2023/05/27 09:57:24;;;;;;;26.23;1.83;;;;;;;24.14;41.68;100429.75;7314113;19;129291;-43
2023/05/27 09:59:51;;;;;;;21.40;1.65;;;;;;;24.12;41.35;100426.44;7314664;19;128880;-40
2023/05/27 10:02:20;;;;;;;23.90;1.75;;;;;;;24.14;41.27;100429.75;7316139;19;130256;-39
2023/05/27 10:04:48;;;;;;;33.33;2.15;;;;;;;24.19;41.17;100424.94;7314299;19;131174;-39
2023/05/27 10:07:16;;;;;;;38.28;2.45;;;;;;;24.19;41.46;100419.66;7315583;19;129155;-41
2023/05/27 10:09:41;;;;;;;30.83;2.05;;;;;;;24.17;41.41;100418.97;7315370;19;128914;-41
2023/05/27 10:12:08;;;;;;;21.53;1.47;;;;;;;24.13;41.22;100413.16;7316312;19;130188;-41
2023/05/27 10:14:34;;;;;;;21.27;1.45;;;;;;;24.06;41.84;100395.47;7314585;19;129737;-39
2023/05/27 10:17:00;;;;;;;31.50;1.90;;;;;;;24.17;41.34;100419.81;7314829;19;129460;-39
2023/05/27 10:19:26;;;;;;;34.47;2.10;;;;;;;24.12;41.36;100413.28;7315921;19;129771;-39
2023/05/27 10:21:51;;;;;;;29.57;2.03;;;;;;;24.18;41.27;100410.13;7315928;19;129165;-38
2023/05/27 10:24:17;;;;;;;25.23;1.73;;;;;;;24.13;41.25;100417.59;7314208;19;129091;-39
2023/05/27 10:26:44;;;;;;;39.58;2.55;;;;;;;24.14;41.26;100419.25;7315444;19;128621;-36
2023/05/27 10:29:15;;;;;;;35.17;2.15;;;;;;;24.14;41.63;100414.84;7316449;19;129845;-39
2023/05/27 10:31:59;;;;;;;21.70;1.42;;;;;;;24.17;40.83;100409.31;7315535;19;130041;-39
2023/05/27 10:34:34;;;;;;;22.73;1.50;;;;;;;24.16;40.82;100407.63;7313741;19;129386;-37
2023/05/27 10:37:02;;;;;;;25.55;1.73;;;;;;;24.16;41.08;100404.19;7314034;19;129212;-39
2023/05/27 10:39:28;;;;;;;29.40;1.85;;;;;;;24.22;41.20;100401.84;7314866;19;129742;-38
2023/05/27 10:41:55;;;;;;;49.80;3.07;;;;;;;24.15;41.61;100400.72;7314623;19;129563;-38
2023/05/27 10:44:37;;;;;;;44.30;2.72;;;;;;;24.12;41.55;100406.25;7314218;19;129352;-40
2023/05/27 10:47:15;;;;;;;22.08;1.45;;;;;;;24.16;40.97;100405.00;7315731;19;129749;-39
2023/05/27 10:49:45;;;;;;;19.70;1.25;;;;;;;24.14;41.69;100404.31;7311532;19;129166;-40
2023/05/27 10:52:13;;;;;;;24.65;1.77;;;;;;;24.13;40.92;100391.31;7314799;19;130423;-40
2023/05/27 10:54:44;;;;;;;29.95;1.90;;;;;;;24.09;40.95;100397.81;7312262;19;129353;-40
2023/05/27 10:57:09;;;;;;;29.15;1.90;;;;;;;24.16;41.44;100391.84;7313745;19;129094;-40
2023/05/27 10:59:55;;;;;;;37.90;2.30;;;;;;;24.17;41.31;100393.53;7315456;19;129353;-41
2023/05/27 11:02:21;;;;;;;9.75;0.95;;;;;;;24.17;41.65;100396.16;7315957;19;129604;-39
2023/05/27 11:04:48;;;;;;;28.50;1.93;;;;;;;24.17;40.95;100390.91;7313543;19;129507;-38
2023/05/27 11:07:18;;;;;;;36.72;2.35;;;;;;;24.15;41.01;100384.13;7314463;19;128948;-39
2023/05/27 11:09:44;;;;;;;50.05;3.10;;;;;;;24.14;41.69;100383.31;7312960;19;129356;-39
2023/05/27 11:12:23;;;;;;;12.73;0.75;;;;;;;24.12;40.99;100379.13;7310696;19;130545;-37
2023/05/27 11:14:50;;;;;;;33.08;1.90;;;;;;;24.14;41.41;100378.06;7315349;19;129860;-39